Time;durP1;ratioP1;P1;durP2;ratioP2;P2;SDS_P1;SDS_P2;PMS_P1;PMS_P2;Temp;Humidity;BMP_temperature;BMP_pressure;BME280_temperature;BME280_humidity;BME280_pressure;Samples;Min_cycle;Max_cycle;Signal;HPM_P1;HPM_P2
2023/08/05 00:00:38;;;;;;;;;7.67;7.00;;;;;21.64;100.00;101589.28;5021742;28;56029;-77
2023/08/05 00:03:04;;;;;;;;;7.67;7.67;;;;;21.66;100.00;101584.75;5030819;28;68129;-76
2023/08/05 00:05:29;;;;;;;;;7.00;7.00;;;;;21.61;100.00;101597.41;5036542;28;45795;-77
2023/08/05 00:07:54;;;;;;;;;10.00;9.00;;;;;21.55;100.00;101589.50;5045789;28;61837;-77
2023/08/05 00:10:19;;;;;;;;;8.00;6.67;;;;;21.51;100.00;101588.66;5032031;28;51855;-78
2023/08/05 00:12:45;;;;;;;;;9.00;8.00;;;;;21.49;100.00;101592.31;5028653;28;46599;-78
2023/08/05 00:15:10;;;;;;;;;8.00;8.00;;;;;21.44;100.00;101593.31;5036055;28;45325;-78
2023/08/05 00:17:36;;;;;;;;;9.00;9.00;;;;;21.42;100.00;101581.72;5035784;28;53720;-78
2023/08/05 00:20:01;;;;;;;;;10.67;7.33;;;;;21.36;100.00;101584.53;5016163;28;60729;-78
2023/08/05 00:22:26;;;;;;;;;11.67;8.33;;;;;21.37;100.00;101591.69;5036032;28;64524;-79
2023/08/05 00:24:52;;;;;;;;;8.00;8.00;;;;;21.40;100.00;101586.22;5035833;28;45288;-80
2023/08/05 00:27:17;;;;;;;;;8.00;8.00;;;;;21.33;100.00;101581.03;5017308;28;45428;-78
2023/08/05 00:29:42;;;;;;;;;7.00;7.00;;;;;21.32;100.00;101580.16;5042567;28;58834;-75
2023/08/05 00:32:08;;;;;;;;;9.33;7.00;;;;;21.28;100.00;101589.16;5036235;28;46951;-75
2023/08/05 00:34:36;;;;;;;;;7.33;7.00;;;;;21.25;100.00;101594.56;5042041;28;45278;-77
2023/08/05 00:37:01;;;;;;;;;9.00;8.00;;;;;21.20;100.00;101577.69;5017572;28;45563;-76
2023/08/05 00:39:27;;;;;;;;;9.67;8.00;;;;;21.22;100.00;101567.78;5041364;28;45523;-77
2023/08/05 00:41:52;;;;;;;;;8.00;8.00;;;;;21.23;100.00;101550.75;5021239;28;46518;-75
2023/08/05 00:44:17;;;;;;;;;9.00;7.67;;;;;21.27;100.00;101548.88;5035564;28;66973;-77
2023/08/05 00:46:43;;;;;;;;;7.00;7.00;;;;;21.21;100.00;101541.84;5034008;28;45450;-75
2023/08/05 00:49:09;;;;;;;;;8.00;8.00;;;;;21.18;100.00;101533.84;5009954;28;52043;-78
2023/08/05 00:51:34;;;;;;;;;10.67;7.67;;;;;21.21;100.00;101528.44;5037789;28;70597;-76
2023/08/05 00:53:59;;;;;;;;;10.00;8.67;;;;;21.14;100.00;101546.44;5020978;28;45240;-77
2023/08/05 00:56:25;;;;;;;;;7.33;7.33;;;;;21.18;100.00;101549.97;5003581;28;63991;-76
2023/08/05 00:58:50;;;;;;;;;7.67;7.67;;;;;21.09;100.00;101550.16;5021124;28;45342;-76
2023/08/05 01:01:15;;;;;;;;;8.33;8.00;;;;;21.08;100.00;101560.00;5037956;28;46386;-77
2023/08/05 01:03:41;;;;;;;;;9.33;6.67;;;;;21.07;100.00;101570.78;5040953;28;66953;-77
2023/08/05 01:06:07;;;;;;;;;11.33;7.00;;;;;20.99;100.00;101576.34;5020887;28;45931;-76
2023/08/05 01:08:33;;;;;;;;;9.00;6.00;;;;;20.95;100.00;101576.41;5018115;28;54789;-77
2023/08/05 01:11:00;;;;;;;;;7.00;7.00;;;;;20.95;100.00;101581.78;5019540;28;68169;-77
2023/08/05 01:13:26;;;;;;;;;7.67;7.67;;;;;20.98;100.00;101584.41;5038092;28;45429;-77
2023/08/05 01:15:51;;;;;;;;;8.00;8.00;;;;;20.97;100.00;101567.41;5037751;28;57922;-76
2023/08/05 01:18:17;;;;;;;;;7.67;5.67;;;;;21.04;100.00;101571.75;5038491;28;48065;-76
2023/08/05 01:20:45;;;;;;;;;7.67;6.33;;;;;20.99;100.00;101562.03;5037888;28;47632;-76
2023/08/05 01:23:19;;;;;;;;;6.67;3.00;;;;;21.05;100.00;101557.41;5020559;28;45244;-76
2023/08/05 01:25:45;;;;;;;;;9.00;7.33;;;;;21.10;100.00;101541.19;5037089;28;45633;-77
2023/08/05 01:28:11;;;;;;;;;8.33;7.00;;;;;21.10;100.00;101536.72;5037965;28;63694;-76
2023/08/05 01:30:37;;;;;;;;;6.00;6.00;;;;;20.96;100.00;101544.16;5019490;28;46534;-77
2023/08/05 01:33:03;;;;;;;;;5.00;5.00;;;;;20.93;100.00;101549.59;5018921;28;45215;-75
2023/08/05 01:35:29;;;;;;;;;6.00;6.00;;;;;20.95;100.00;101557.63;5019863;28;45468;-76
2023/08/05 01:37:54;;;;;;;;;6.00;6.00;;;;;21.00;100.00;101545.88;5037784;28;45560;-77
2023/08/05 01:40:20;;;;;;;;;6.00;4.67;;;;;21.00;100.00;101551.25;5019371;28;47628;-76
2023/08/05 01:42:45;;;;;;;;;5.00;5.00;;;;;21.01;100.00;101549.44;5035298;28;45347;-77
2023/08/05 01:45:10;;;;;;;;;7.67;5.00;;;;;21.03;100.00;101545.78;5019329;28;45503;-76
2023/08/05 01:47:36;;;;;;;;;6.00;4.67;;;;;20.99;100.00;101554.84;5019759;28;64054;-75
2023/08/05 01:50:01;;;;;;;;;5.67;5.00;;;;;20.98;100.00;101565.59;5037725;28;46872;-76
2023/08/05 01:52:26;;;;;;;;;5.00;5.00;;;;;20.99;100.00;101573.66;5020100;28;45484;-75
2023/08/05 01:54:52;;;;;;;;;5.00;5.00;;;;;20.96;100.00;101591.59;5037582;28;45318;-75
2023/08/05 01:57:17;;;;;;;;;5.67;5.67;;;;;21.00;100.00;101604.06;5037484;28;45317;-76
2023/08/05 01:59:42;;;;;;;;;5.00;5.00;;;;;20.97;100.00;101602.31;5019007;28;66856;-76
2023/08/05 02:02:08;;;;;;;;;6.67;5.00;;;;;20.97;100.00;101596.94;5036088;28;61601;-76
2023/08/05 02:04:33;;;;;;;;;6.67;5.33;;;;;20.98;100.00;101584.41;5024664;28;65531;-76
2023/08/05 02:06:58;;;;;;;;;6.33;5.00;;;;;21.01;100.00;101581.66;5036378;28;63214;-78
2023/08/05 02:09:24;;;;;;;;;7.33;5.67;;;;;21.06;100.00;101577.09;5036267;28;71601;-77
2023/08/05 02:11:49;;;;;;;;;5.67;5.67;;;;;21.07;100.00;101558.25;5045269;28;66726;-76
2023/08/05 02:14:15;;;;;;;;;4.00;4.00;;;;;21.11;100.00;101551.03;5036488;28;56171;-76
2023/08/05 02:16:40;;;;;;;;;9.00;6.00;;;;;21.18;100.00;101528.47;5038076;28;45448;-76
2023/08/05 02:19:05;;;;;;;;;5.00;5.00;;;;;21.18;100.00;101523.09;5023812;28;70726;-77
2023/08/05 02:21:31;;;;;;;;;7.00;6.67;;;;;21.21;100.00;101519.50;5019851;28;45323;-75
2023/08/05 02:23:56;;;;;;;;;7.67;6.00;;;;;21.23;100.00;101513.16;5036748;28;61574;-76
2023/08/05 02:26:21;;;;;;;;;5.00;5.00;;;;;21.25;100.00;101494.28;5036413;28;60105;-75
2023/08/05 02:28:47;;;;;;;;;7.00;5.67;;;;;21.30;100.00;101495.13;5037276;28;47363;-76
2023/08/05 02:31:13;;;;;;;;;6.00;6.00;;;;;21.36;100.00;101489.59;5036937;28;45328;-76
2023/08/05 02:33:38;;;;;;;;;7.00;5.33;;;;;21.42;100.00;101486.78;5036968;28;45535;-76
2023/08/05 02:36:04;;;;;;;;;6.33;6.00;;;;;21.40;100.00;101476.06;5018479;28;60055;-77
2023/08/05 02:38:29;;;;;;;;;6.67;6.00;;;;;21.38;100.00;101477.03;5019723;28;45315;-78
2023/08/05 02:40:56;;;;;;;;;6.00;6.00;;;;;21.31;100.00;101470.94;5019338;28;45290;-76
2023/08/05 02:43:22;;;;;;;;;6.33;5.00;;;;;21.36;100.00;101462.72;5036549;28;45287;-78
2023/08/05 02:45:57;;;;;;;;;8.00;5.00;;;;;21.19;100.00;101471.16;5035504;28;57470;-76
2023/08/05 02:48:25;;;;;;;;;5.67;5.67;;;;;21.11;100.00;101462.41;5036504;28;47263;-77
2023/08/05 02:50:52;;;;;;;;;6.00;5.00;;;;;21.14;100.00;101454.25;5037314;28;45306;-75
2023/08/05 02:53:17;;;;;;;;;8.00;4.67;;;;;21.15;100.00;101453.38;5036633;28;45551;-77
2023/08/05 02:55:43;;;;;;;;;4.00;4.00;;;;;21.13;100.00;101455.19;5037345;28;45440;-76
2023/08/05 02:58:08;;;;;;;;;5.33;5.33;;;;;21.11;100.00;101465.97;5036064;28;72171;-77
2023/08/05 03:00:34;;;;;;;;;8.00;4.33;;;;;21.01;100.00;101466.22;5018254;28;45508;-77
2023/08/05 03:02:59;;;;;;;;;8.33;6.00;;;;;21.01;100.00;101459.03;5041449;28;45270;-77
2023/08/05 03:05:25;;;;;;;;;5.00;5.00;;;;;21.04;100.00;101466.13;5035380;28;61892;-76
2023/08/05 03:07:50;;;;;;;;;3.67;3.67;;;;;21.03;100.00;101459.88;5018798;28;45616;-77
2023/08/05 03:10:16;;;;;;;;;6.00;6.00;;;;;20.96;100.00;101460.94;5040995;28;49663;-77
2023/08/05 03:12:41;;;;;;;;;8.33;5.33;;;;;20.99;100.00;101452.81;5039093;28;45289;-78
2023/08/05 03:15:06;;;;;;;;;6.00;4.00;;;;;20.95;100.00;101456.50;5035648;28;60289;-77
2023/08/05 03:17:32;;;;;;;;;6.00;5.00;;;;;20.91;100.00;101454.78;5035924;28;47164;-76
2023/08/05 03:19:58;;;;;;;;;4.67;4.67;;;;;20.92;100.00;101467.28;5039743;28;45396;-77
2023/08/05 03:22:23;;;;;;;;;7.00;6.00;;;;;20.87;100.00;101462.00;5035431;28;61322;-77
2023/08/05 03:24:48;;;;;;;;;7.00;5.00;;;;;20.84;100.00;101458.53;5036215;28;55260;-76
2023/08/05 03:27:14;;;;;;;;;5.00;5.00;;;;;20.82;100.00;101450.47;5035602;28;66089;-77
2023/08/05 03:29:39;;;;;;;;;5.00;5.00;;;;;20.83;100.00;101451.41;5017135;28;45436;-76
2023/08/05 03:32:04;;;;;;;;;5.67;5.00;;;;;20.85;100.00;101446.88;5036003;28;64210;-76
2023/08/05 03:34:30;;;;;;;;;5.67;4.67;;;;;20.88;100.00;101460.22;5036253;28;45538;-77
2023/08/05 03:36:55;;;;;;;;;6.67;5.00;;;;;20.87;100.00;101458.44;5034583;28;64509;-75
2023/08/05 03:39:21;;;;;;;;;5.00;5.00;;;;;20.87;100.00;101455.75;5035278;28;61491;-76
2023/08/05 03:41:46;;;;;;;;;7.00;5.00;;;;;20.91;100.00;101463.72;5035467;28;65569;-78
2023/08/05 03:44:12;;;;;;;;;7.00;6.00;;;;;20.92;100.00;101461.91;5035917;28;45428;-77
2023/08/05 03:46:37;;;;;;;;;4.00;4.00;;;;;20.92;100.00;101448.47;5035563;28;46181;-77
2023/08/05 03:49:06;;;;;;;;;6.00;6.00;;;;;20.95;100.00;101450.25;5018470;28;45532;-78
2023/08/05 03:51:32;;;;;;;;;4.67;4.00;;;;;20.91;100.00;101450.28;5036049;28;45374;-77
2023/08/05 03:53:57;;;;;;;;;4.67;4.33;;;;;20.93;100.00;101436.81;5035894;28;45656;-75
2023/08/05 03:56:26;;;;;;;;;4.00;4.00;;;;;20.96;100.00;101420.66;5036038;28;61301;-77
2023/08/05 03:58:52;;;;;;;;;6.00;4.67;;;;;20.93;100.00;101410.88;5035229;28;45178;-77
2023/08/05 04:01:19;;;;;;;;;6.33;4.00;;;;;20.98;100.00;101407.19;5029369;28;45333;-75
2023/08/05 04:03:44;;;;;;;;;4.33;4.33;;;;;20.93;100.00;101381.34;5037496;28;45359;-78
2023/08/05 04:06:11;;;;;;;;;3.00;3.00;;;;;20.92;100.00;101370.63;5036125;28;46251;-75
2023/08/05 04:08:38;;;;;;;;;6.33;5.00;;;;;21.01;100.00;101373.09;5035758;28;45385;-76
2023/08/05 04:11:05;;;;;;;;;6.00;5.00;;;;;21.01;100.00;101366.88;5038063;28;45408;-77
2023/08/05 04:13:31;;;;;;;;;4.33;4.33;;;;;21.08;100.00;101347.00;5035803;28;45451;-77
2023/08/05 04:15:59;;;;;;;;;4.67;4.67;;;;;21.12;100.00;101340.63;5035185;28;46468;-77
2023/08/05 04:18:24;;;;;;;;;7.33;4.67;;;;;21.14;100.00;101355.78;5036103;28;45195;-75
2023/08/05 04:20:51;;;;;;;;;3.00;3.00;;;;;21.09;100.00;101356.81;5039030;28;45471;-77
2023/08/05 04:23:19;;;;;;;;;5.00;4.00;;;;;21.14;100.00;101352.19;5030578;28;45630;-78
2023/08/05 04:25:45;;;;;;;;;4.00;4.00;;;;;21.18;100.00;101356.59;5027181;28;45818;-77
2023/08/05 04:28:11;;;;;;;;;5.00;3.67;;;;;21.17;100.00;101369.13;5004751;28;45362;-75
2023/08/05 04:30:37;;;;;;;;;3.00;3.00;;;;;21.23;100.00;101368.09;5039348;28;45407;-77
2023/08/05 04:33:02;;;;;;;;;6.67;5.00;;;;;21.19;100.00;101375.34;5039897;28;45473;-76
2023/08/05 04:35:28;;;;;;;;;5.33;4.00;;;;;21.18;100.00;101372.69;5038806;28;46300;-74
2023/08/05 04:37:53;;;;;;;;;3.00;3.00;;;;;21.23;100.00;101377.97;5038330;28;64510;-77
2023/08/05 04:40:18;;;;;;;;;5.00;4.67;;;;;21.16;100.00;101386.19;5039535;28;45392;-77
2023/08/05 04:42:45;;;;;;;;;3.67;2.33;;;;;21.12;100.00;101378.22;5038579;28;53231;-77
2023/08/05 04:45:11;;;;;;;;;2.00;2.00;;;;;21.14;100.00;101371.88;5037844;28;47234;-77
2023/08/05 04:47:36;;;;;;;;;5.00;4.00;;;;;21.12;100.00;101376.41;5039156;28;46484;-76
2023/08/05 04:50:02;;;;;;;;;6.00;4.33;;;;;21.15;100.00;101372.78;5038557;28;45539;-77
2023/08/05 04:52:27;;;;;;;;;3.00;3.00;;;;;21.18;100.00;101364.66;5039354;28;45598;-76
2023/08/05 04:54:53;;;;;;;;;3.33;3.00;;;;;21.22;100.00;101370.84;5038524;28;46620;-75
2023/08/05 04:57:18;;;;;;;;;2.67;2.67;;;;;21.19;100.00;101369.09;5020461;28;47104;-76
2023/08/05 04:59:43;;;;;;;;;5.00;2.00;;;;;21.22;100.00;101352.91;5031000;28;45277;-77
2023/08/05 05:02:09;;;;;;;;;3.00;2.00;;;;;21.23;100.00;101351.09;5031350;28;45463;-76
2023/08/05 05:04:34;;;;;;;;;3.33;3.33;;;;;21.17;100.00;101347.66;5041653;28;46105;-76
2023/08/05 05:06:59;;;;;;;;;4.00;3.00;;;;;21.26;100.00;101349.25;5037614;28;62410;-77
2023/08/05 05:09:25;;;;;;;;;4.00;3.00;;;;;21.26;100.00;101349.25;5038654;28;45333;-76
2023/08/05 05:11:53;;;;;;;;;3.67;3.67;;;;;21.29;100.00;101341.09;5040985;28;57338;-77
2023/08/05 05:14:18;;;;;;;;;3.67;3.67;;;;;21.28;100.00;101333.97;5037906;28;47251;-76
2023/08/05 05:16:43;;;;;;;;;3.00;3.00;;;;;21.31;100.00;101328.56;5038511;28;47066;-77
2023/08/05 05:19:09;;;;;;;;;8.00;3.67;;;;;21.27;100.00;101321.44;5038106;28;45441;-76
2023/08/05 05:21:34;;;;;;;;;4.33;3.00;;;;;21.30;100.00;101326.75;5170523;22;45650;-77
2023/08/05 05:24:00;;;;;;;;;5.33;4.00;;;;;21.30;100.00;101326.75;5059273;28;63894;-76
2023/08/05 05:26:25;;;;;;;;;3.00;3.00;;;;;21.34;100.00;101317.72;5058195;28;67877;-76
2023/08/05 05:28:50;;;;;;;;;4.00;2.00;;;;;21.39;100.00;101326.53;5078150;28;64123;-77
2023/08/05 05:31:16;;;;;;;;;4.00;2.00;;;;;21.41;100.00;101326.47;5077058;28;61189;-77
2023/08/05 05:33:45;;;;;;;;;4.00;2.00;;;;;21.42;100.00;101309.47;5075175;28;46805;-76
2023/08/05 05:36:11;;;;;;;;;5.00;2.00;;;;;21.49;100.00;101304.81;5060880;28;45309;-76
2023/08/05 05:38:36;;;;;;;;;4.00;4.00;;;;;21.59;100.00;101292.88;5046340;28;45224;-76
2023/08/05 05:41:02;;;;;;;;;4.00;4.00;;;;;21.61;100.00;101291.91;5070792;28;45389;-77
2023/08/05 05:43:27;;;;;;;;;5.00;4.00;;;;;21.65;100.00;101285.53;5066824;28;46675;-76
2023/08/05 05:45:53;;;;;;;;;4.33;3.00;;;;;21.64;100.00;101283.78;5069600;28;60870;-76
2023/08/05 05:48:19;;;;;;;;;4.00;4.00;;;;;21.68;100.00;101280.09;5059760;28;45303;-76
2023/08/05 05:50:44;;;;;;;;;3.33;3.33;;;;;21.75;100.00;101286.16;5070936;28;45537;-76
2023/08/05 05:53:13;;;;;;;;;4.00;4.00;;;;;21.78;100.00;101283.38;5071251;28;66383;-77
2023/08/05 05:55:41;;;;;;;;;5.00;3.33;;;;;21.78;100.00;101282.50;5077871;28;45478;-76
2023/08/05 05:58:06;;;;;;;;;4.00;2.33;;;;;21.77;100.00;101269.97;5065162;28;45389;-76
2023/08/05 06:00:31;;;;;;;;;2.00;2.00;;;;;21.86;100.00;101267.03;5066320;28;45407;-77
2023/08/05 06:02:57;;;;;;;;;4.00;4.00;;;;;21.89;100.00;101264.25;5071645;28;69874;-76
2023/08/05 06:05:22;;;;;;;;;3.67;2.67;;;;;21.95;100.00;101262.28;5070647;28;67193;-77
2023/08/05 06:07:48;;;;;;;;;5.67;4.67;;;;;21.89;100.00;101264.25;5070640;28;52502;-77
2023/08/05 06:10:14;;;;;;;;;3.33;3.33;;;;;21.92;100.00;101256.97;5075838;28;45442;-78
2023/08/05 06:12:40;;;;;;;;;5.00;4.67;;;;;21.88;100.00;101246.34;5077365;28;46471;-78
2023/08/05 06:15:08;;;;;;;;;4.00;4.00;;;;;21.93;100.00;101242.59;5067741;28;45342;-76
2023/08/05 06:17:33;;;;;;;;;3.33;3.33;;;;;21.91;100.00;101239.09;5075531;28;45398;-78
2023/08/05 06:19:59;;;;;;;;;3.00;3.00;;;;;21.95;100.00;101245.28;5065257;28;55369;-77
2023/08/05 06:22:24;;;;;;;;;6.67;3.33;;;;;21.93;100.00;101242.59;5059774;28;45605;-77
2023/08/05 06:24:50;;;;;;;;;4.33;2.00;;;;;21.92;100.00;101238.16;5068509;28;45587;-77
2023/08/05 06:27:16;;;;;;;;;3.67;2.33;;;;;21.88;100.00;101251.75;5058483;28;45584;-76
2023/08/05 06:29:42;;;;;;;;;3.00;3.00;;;;;21.87;100.00;101250.84;5069831;28;45648;-76
2023/08/05 06:32:07;;;;;;;;;3.00;2.00;;;;;21.87;100.00;101248.16;5068588;28;66760;-77
2023/08/05 06:34:33;;;;;;;;;4.00;2.33;;;;;21.85;100.00;101243.78;5073255;28;62463;-76
2023/08/05 06:36:58;;;;;;;;;3.00;3.00;;;;;21.89;100.00;101240.97;5072561;28;45154;-77
2023/08/05 06:39:23;;;;;;;;;3.00;3.00;;;;;21.93;100.00;101230.97;5077026;28;50539;-78
2023/08/05 06:41:49;;;;;;;;;3.33;3.33;;;;;22.06;100.00;101223.44;5067771;28;69177;-77
2023/08/05 06:44:14;;;;;;;;;3.00;3.00;;;;;22.16;100.00;101230.34;5062403;28;47718;-76
2023/08/05 06:46:39;;;;;;;;;3.00;3.00;;;;;22.24;100.00;101230.97;5057016;28;58825;-78
2023/08/05 06:49:05;;;;;;;;;1.67;1.67;;;;;22.30;100.00;101224.50;5066425;28;45520;-76
2023/08/05 06:51:32;;;;;;;;;2.67;2.67;;;;;22.32;100.00;101223.56;5074900;28;47040;-76
2023/08/05 06:53:57;;;;;;;;;4.33;1.33;;;;;22.34;100.00;101220.81;5076704;28;45347;-76
2023/08/05 06:56:23;;;;;;;;;2.33;1.00;;;;;22.37;100.00;101213.53;5064161;28;45299;-77
2023/08/05 06:58:48;;;;;;;;;3.67;1.33;;;;;22.34;100.00;101201.97;5067187;28;46316;-77
2023/08/05 07:01:15;;;;;;;;;1.33;1.33;;;;;22.37;100.00;101210.84;5075731;28;47165;-77
2023/08/05 07:03:42;;;;;;;;;1.67;1.67;;;;;22.36;100.00;101206.34;5072789;28;45435;-76
2023/08/05 07:06:10;;;;;;;;;2.00;2.00;;;;;22.31;100.00;101199.38;5050995;28;45403;-76
2023/08/05 07:08:35;;;;;;;;;1.33;1.33;;;;;22.30;100.00;101205.69;5070681;28;45554;-76
2023/08/05 07:11:01;;;;;;;;;2.33;2.33;;;;;22.37;100.00;101201.84;5065205;28;46926;-77
2023/08/05 07:13:26;;;;;;;;;1.67;1.67;;;;;22.44;100.00;101198.94;5076662;28;45521;-76
2023/08/05 07:16:01;;;;;;;;;2.33;2.33;;;;;22.53;100.00;101205.84;5058832;28;45463;-77
2023/08/05 07:18:27;;;;;;;;;1.67;1.67;;;;;22.56;100.00;101199.47;5068869;28;45252;-76
2023/08/05 07:20:53;;;;;;;;;2.00;0.33;;;;;22.62;100.00;101201.94;5063594;28;46499;-77
2023/08/05 07:23:18;;;;;;;;;1.33;1.33;;;;;;;;5067212;28;45313;-77
2023/08/05 07:25:43;;;;;;;;;1.33;1.33;;;;;22.70;100.00;101197.22;5070259;28;45266;-77
2023/08/05 07:28:10;;;;;;;;;2.33;1.00;;;;;22.71;100.00;101193.56;5066662;28;46534;-76
2023/08/05 07:30:35;;;;;;;;;1.33;0.00;;;;;22.72;100.00;101198.03;5058864;28;69353;-77
2023/08/05 07:33:04;;;;;;;;;2.00;2.00;;;;;22.77;100.00;101193.38;5075991;28;54501;-77
2023/08/05 07:35:29;;;;;;;;;3.00;0.67;;;;;22.74;100.00;101180.91;5073385;28;45351;-77
2023/08/05 07:37:55;;;;;;;;;3.00;1.33;;;;;22.72;100.00;101195.31;5075779;28;58593;-77
2023/08/05 07:40:22;;;;;;;;;3.33;1.00;;;;;22.67;100.00;101197.28;5049575;28;45836;-76
2023/08/05 07:42:49;;;;;;;;;1.00;1.00;;;;;22.77;100.00;101190.66;5058417;28;45461;-76
2023/08/05 07:45:17;;;;;;;;;3.00;1.67;;;;;23.11;100.00;101200.31;5069486;28;45461;-75
2023/08/05 07:47:43;;;;;;;;;1.00;1.00;;;;;23.27;100.00;101188.03;5051653;28;45373;-77
2023/08/05 07:50:16;;;;;;;;;1.67;1.67;;;;;23.35;100.00;101188.66;5076294;28;47607;-80
2023/08/05 07:52:41;;;;;;;;;1.33;1.33;;;;;23.37;100.00;101191.28;5076148;28;45512;-77
2023/08/05 07:55:07;;;;;;;;;4.67;0.67;;;;;23.30;100.00;101181.69;5072635;28;45329;-78
2023/08/05 07:57:35;;;;;;;;;1.00;1.00;;;;;23.30;100.00;101179.88;5076078;28;45420;-78
2023/08/05 08:00:00;;;;;;;;;1.00;1.00;;;;;23.25;100.00;101174.63;5070277;28;46486;-77
2023/08/05 08:02:25;;;;;;;;;2.00;1.00;;;;;23.31;100.00;101169.97;5070851;28;45391;-78
2023/08/05 08:04:58;;;;;;;;;1.00;1.00;;;;;23.25;100.00;101154.91;5067635;28;45301;-78
2023/08/05 08:07:24;;;;;;;;;2.00;2.00;;;;;23.24;100.00;101153.16;5074104;28;45141;-75
2023/08/05 08:09:50;;;;;;;;;3.00;1.33;;;;;23.31;100.00;101153.78;5059279;28;47263;-77
2023/08/05 08:12:15;;;;;;;;;1.00;1.00;;;;;23.30;100.00;101161.00;5067041;28;45766;-75
2023/08/05 08:14:40;;;;;;;;;0.67;0.67;;;;;23.30;100.00;101147.53;5064087;28;45452;-80
2023/08/05 08:17:06;;;;;;;;;6.00;2.00;;;;;23.31;100.00;101156.50;5067680;28;61692;-79
2023/08/05 08:19:31;;;;;;;;;3.67;2.00;;;;;23.37;100.00;101159.84;5067668;28;55072;-79
2023/08/05 08:21:56;;;;;;;;;1.00;1.00;;;;;23.39;100.00;101155.28;5067275;28;64616;-78
2023/08/05 08:24:22;;;;;;;;;3.67;0.67;;;;;23.47;100.00;101154.97;5066891;28;60306;-77
2023/08/05 08:26:47;;;;;;;;;1.33;1.33;;;;;23.51;100.00;101153.94;5067976;28;58342;-75
2023/08/05 08:29:12;;;;;;;;;0.67;0.67;;;;;23.54;100.00;101148.41;5067505;28;68882;-82
2023/08/05 08:31:38;;;;;;;;;2.33;1.00;;;;;23.54;100.00;101145.72;5071078;28;45473;-82
2023/08/05 08:34:03;;;;;;;;;3.33;1.33;;;;;23.58;100.00;101141.09;5052497;28;51399;-80
2023/08/05 08:36:29;;;;;;;;;2.00;1.00;;;;;23.59;100.00;101141.03;5072120;28;45593;-81
2023/08/05 08:38:54;;;;;;;;;2.00;0.67;;;;;23.59;100.00;101137.47;5051258;28;46451;-81
2023/08/05 08:41:19;;;;;;;;;3.33;1.00;;;;;23.46;100.00;101148.72;5069779;28;45422;-80
2023/08/05 08:43:47;;;;;;;;;1.67;1.67;;;;;23.42;100.00;101143.50;5049098;28;45426;-80
2023/08/05 08:46:13;;;;;;;;;2.67;1.00;;;;;23.32;100.00;101137.56;5048699;28;45592;-80
2023/08/05 08:48:40;;;;;;;;;1.00;1.00;;;;;23.22;100.00;101128.06;5052379;28;47498;-79
2023/08/05 08:51:05;;;;;;;;;3.00;1.00;;;;;23.23;100.00;101116.38;5049372;28;48890;-81
2023/08/05 08:53:34;;;;;;;;;4.33;1.00;;;;;23.26;100.00;101135.09;5045521;28;45836;-81
2023/08/05 08:56:00;;;;;;;;;1.00;1.00;;;;;23.32;100.00;101118.69;5065837;28;45592;-78
2023/08/05 08:58:25;;;;;;;;;2.00;2.00;;;;;23.40;100.00;101108.53;5065666;28;47468;-82
2023/08/05 09:00:52;;;;;;;;;2.00;2.00;;;;;23.46;100.00;101110.09;5068163;28;56604;-81
2023/08/05 09:03:18;;;;;;;;;2.00;2.00;;;;;23.56;100.00;101113.34;5066077;28;45364;-80
2023/08/05 09:05:46;;;;;;;;;1.00;1.00;;;;;23.68;100.00;101099.41;5066294;28;45399;-79
2023/08/05 09:08:11;;;;;;;;;1.33;1.33;;;;;23.72;100.00;101095.66;5047590;28;47334;-82
2023/08/05 09:10:39;;;;;;;;;3.00;3.00;;;;;23.91;100.00;101093.09;5053463;28;45486;-84
2023/08/05 09:13:06;;;;;;;;;2.00;1.00;;;;;23.99;100.00;101097.25;5050117;28;45583;-86
2023/08/05 09:15:33;;;;;;;;;3.33;1.00;;;;;24.05;100.00;101094.31;5035934;28;45676;-85
2023/08/05 09:17:58;;;;;;;;;2.00;2.00;;;;;24.07;100.00;101087.97;5049956;28;47043;-84
2023/08/05 09:20:24;;;;;;;;;1.00;1.00;;;;;24.22;100.00;101084.63;5069580;28;45418;-83
2023/08/05 09:22:57;;;;;;;;;2.00;2.00;;;;;24.18;100.00;101083.91;5036907;28;46025;-82
2023/08/05 09:25:23;;;;;;;;;1.67;1.33;;;;;24.25;100.00;101081.81;5032802;28;45361;-83
2023/08/05 09:27:52;;;;;;;;;2.00;2.00;;;;;24.27;100.00;101069.13;5067165;28;45818;-84
2023/08/05 09:30:18;;;;;;;;;1.67;1.33;;;;;24.34;100.00;101054.41;5047834;28;45644;-84
2023/08/05 09:32:47;;;;;;;;;2.00;2.00;;;;;24.42;100.00;101049.63;5052032;28;45515;-85
2023/08/05 09:35:13;;;;;;;;;3.67;2.00;;;;;24.43;100.00;101037.00;5052265;28;45619;-81
2023/08/05 09:37:44;;;;;;;;;1.67;1.67;;;;;24.40;100.00;101046.13;5069984;28;46467;-77
2023/08/05 09:40:22;;;;;;;;;4.00;1.67;;;;;24.26;100.00;101048.47;5068180;28;45627;-77
2023/08/05 09:42:54;;;;;;;;;1.67;1.67;;;;;24.11;100.00;101046.44;5067737;28;45480;-77
2023/08/05 09:45:20;;;;;;;;;2.00;2.00;;;;;24.05;100.00;101045.75;5064777;28;45573;-77
2023/08/05 09:47:47;;;;;;;;;2.00;2.00;;;;;23.94;100.00;101042.59;5068044;28;46966;-77
2023/08/05 09:50:16;;;;;;;;;2.00;2.00;;;;;23.86;100.00;101041.16;5069100;28;45498;-78
2023/08/05 09:52:43;;;;;;;;;1.00;1.00;;;;;23.79;100.00;101043.22;5067348;28;47377;-77
2023/08/05 09:55:13;;;;;;;;;3.33;1.33;;;;;23.78;100.00;101036.09;5070180;28;45517;-78
2023/08/05 09:57:40;;;;;;;;;2.00;2.00;;;;;23.74;100.00;101021.84;5069184;28;47546;-77
2023/08/05 10:00:13;;;;;;;;;1.67;0.67;;;;;23.64;100.00;101017.75;5070354;28;45467;-78
2023/08/05 10:02:41;;;;;;;;;2.00;2.00;;;;;23.62;100.00;101005.25;5068054;28;45595;-79
2023/08/05 10:05:09;;;;;;;;;3.00;1.33;;;;;23.68;100.00;100996.94;5070020;28;45608;-80
2023/08/05 10:07:34;;;;;;;;;3.00;1.67;;;;;23.78;100.00;101009.13;5068250;28;47581;-77
2023/08/05 10:10:00;;;;;;;;;1.67;1.67;;;;;23.67;100.00;101011.38;5068775;28;67497;-77
2023/08/05 10:12:28;;;;;;;;;4.00;1.67;;;;;23.75;100.00;101018.19;5066135;28;45566;-76
2023/08/05 10:14:58;;;;;;;;;3.00;2.00;;;;;23.77;100.00;101007.38;5068393;28;45658;-76
2023/08/05 10:17:24;;;;;;;;;1.67;1.67;;;;;24.01;100.00;101006.34;5063630;28;46514;-76
2023/08/05 10:19:53;;;;;;;;;2.33;2.00;;;;;24.03;100.00;100996.38;5047802;28;45973;-76
2023/08/05 10:22:25;;;;;;;;;3.67;1.00;;;;;24.21;100.00;101001.94;5065057;28;45490;-76
2023/08/05 10:24:57;;;;;;;;;5.67;1.00;;;;;24.30;100.00;101006.94;5067064;28;45414;-75
2023/08/05 10:27:44;;;;;;;;;1.33;1.33;;;;;24.37;100.00;101002.19;5066598;28;47317;-79
2023/08/05 10:30:16;;;;;;;;;1.00;1.00;;;;;24.29;100.00;100984.47;5068634;28;45412;-76
2023/08/05 10:33:00;;;;;;;;;4.00;2.00;;;;;24.35;100.00;100975.25;5049010;28;45419;-76
2023/08/05 10:35:29;;;;;;;;;2.00;2.00;;;;;24.48;100.00;100972.88;5062912;28;46110;-75
2023/08/05 10:38:21;;;;;;;;;3.00;1.67;;;;;24.47;100.00;100972.00;5061885;28;46581;-77
2023/08/05 10:41:01;;;;;;;;;2.67;2.00;;;;;24.44;100.00;100971.25;5061393;28;45882;-76
2023/08/05 10:43:35;;;;;;;;;4.00;3.00;;;;;24.55;100.00;100953.66;5061831;28;45392;-80
2023/08/05 10:46:06;;;;;;;;;3.67;1.00;;;;;24.72;100.00;100949.31;5058699;28;45464;-78
2023/08/05 10:48:38;;;;;;;;;5.67;3.00;;;;;24.74;100.00;100937.47;5055729;28;47788;-82
2023/08/05 10:51:13;;;;;;;;;2.00;2.00;;;;;24.73;100.00;100921.34;5045115;28;45477;-82
2023/08/05 10:53:39;;;;;;;;;2.00;2.00;;;;;24.74;100.00;100912.31;5060207;28;45450;-81
2023/08/05 10:56:11;;;;;;;;;2.00;2.00;;;;;24.79;100.00;100912.97;5065013;28;45526;-80
2023/08/05 10:58:37;;;;;;;;;2.00;2.00;;;;;24.80;100.00;100893.97;5065660;28;46829;-78
2023/08/05 11:01:04;;;;;;;;;3.67;3.00;;;;;24.80;100.00;100887.72;5048978;28;45553;-79
2023/08/05 11:03:43;;;;;;;;;3.33;2.00;;;;;24.74;100.00;100882.59;5067242;28;45460;-80
2023/08/05 11:06:09;;;;;;;;;4.33;3.00;;;;;24.82;100.00;100877.69;5064045;28;45698;-78
2023/08/05 11:08:37;;;;;;;;;2.67;2.67;;;;;24.78;100.00;100868.00;5068204;28;47545;-79
2023/08/05 11:11:07;;;;;;;;;3.00;3.00;;;;;24.60;100.00;100866.16;5050934;28;45512;-79
2023/08/05 11:13:34;;;;;;;;;2.00;2.00;;;;;24.85;100.00;100850.56;5065286;28;45507;-78